Flight Track Log - Related Links

Times and Time Zones

All times are in EDT time to prevent confusion due to time zone crossing. See the AWI3970 flight status page for this flight to view local times or setup timezone preferences in your user account.

Time Position Orientation Groundspeed Altitude Reporting Facility
EDT Latitude Longitude Course Direction KTS MPH feet Rate Location/Type
Mon 12:38:19 AM 39.8667 -75.2667 247° West 149 171 1,100  Level Philadelphia TRACON
Mon 12:39:07 AM 39.8500 -75.3167 247° West 191 220 3,400 2,833 Climbing Philadelphia TRACON
Mon 12:40:07 AM 39.8000 -75.3667 218° Southwest 226 260 6,200 2,368 Climbing Philadelphia TRACON
Mon 12:41:01 AM 39.7667 -75.3167 131° Southeast 273 314 7,900 2,111 Climbing Philadelphia TRACON
Mon 12:41:55 AM 39.7833 -75.2167 78° East 294 338 10,000 1,947 Climbing Philadelphia TRACON
Mon 12:42:55 AM 39.7833 -75.1167 90° East 320 368 11,600 1,418 Climbing Philadelphia TRACON
Mon 12:44:40 AM 39.7875 -74.8881 89° East 377 434 13,900 1,390 Climbing New York Center
Mon 12:45:39 AM 39.7942 -74.7478 86° East 382 440 15,400 1,412 Climbing New York Center
Mon 12:46:39 AM 39.8583 -74.6378 53° Northeast 387 445 16,700 1,180 Climbing New York Center
Mon 12:48:42 AM 40.0731 -74.5822 11° North 371 427 19,000 1,082 Climbing Boston Center
Mon 12:49:42 AM 40.1842 -74.5506 12° North 383 441 20,000 950 Climbing Boston Center
Mon 12:50:42 AM 40.2972 -74.5186 12° North 397 457 20,900 800 Climbing Boston Center
Mon 12:51:42 AM 40.4125 -74.4869 12° North 410 472 21,600 800 Climbing Boston Center
Mon 12:52:42 AM 40.5297 -74.4525 13° North 416 479 22,500 800 Climbing Boston Center
Mon 12:53:42 AM 40.6469 -74.4206 12° North 422 486 23,200 750 Climbing Boston Center
Mon 12:54:42 AM 40.7642 -74.3856 13° North 422 486 24,000 700 Climbing Boston Center
Mon 12:55:42 AM 40.8983 -74.3514 11° North 435 501 24,600 500 Climbing Boston Center
Mon 12:56:42 AM 41.0217 -74.3192 11° North 440 506 25,000 200 Climbing Boston Center
Mon 12:57:42 AM 41.1453 -74.2814 13° North 446 513 25,000  Level Boston Center
Mon 12:58:42 AM 41.2689 -74.2408 14° North 452 520 25,000  Level Boston Center
Mon 12:59:42 AM 41.3861 -74.2053 13° North 459 528 25,000  Level Boston Center
Mon 01:00:42 AM 41.5161 -74.1672 12° North 464 534 25,000 -700 Level Boston Center
Mon 01:01:42 AM 41.6583 -74.1267 12° North 469 540 23,600 -2,050 Descending Boston Center
Mon 01:02:42 AM 41.7819 -74.0939 11° North 464 534 20,900 -2,650 Descending Boston Center
Mon 01:03:42 AM 41.8864 -74.0631 12° North 446 513 18,300 -2,504 Descending Boston Center
Mon 01:04:37 AM 42.0058 -74.0269 13° North 428 493 16,100 -2,379 Descending Boston Center
Mon 01:05:38 AM 42.1208 -73.9936 12° North 411 473 13,700 -2,262 Descending Boston Center
Mon 01:06:39 AM 42.2256 -73.9625 12° North 400 460 11,500 -1,388 Descending Boston Center
Mon 01:07:39 AM 42.3217 -73.9339 12° North 326 375 10,900 -1,686 Descending Boston Center
Mon 01:08:40 AM 42.4078 -73.8994 16° North 283 326 8,100 -2,705 Descending Boston Center
Mon 01:09:41 AM 42.4831 -73.8731 14° North 276 318 5,400 -2,727 Descending Boston Center
Mon 01:10:41 AM 42.5500 -73.8436 18° North 256 295 2,600 -1,537 Descending Boston Center
Mon 01:11:42 AM 42.6086 -73.8253 13° North 254 292 2,300 -248 Descending Boston Center
Mon 01:12:42 AM 42.6842 -73.7986 15° North 244 281 2,100 4,350 Descending Boston Center
Mon 01:13:42 AM 42.7511 -73.7803 11° North 244 281 11,000 4,450 Climbing Boston Center
Mon 01:14:42 AM 42.8200 -73.7592 13° North 244 281 11,000  Level Boston Center
Mon 01:15:42 AM 42.8869 -73.7408 11° North 244 281 11,000  Level Boston Center
Mon 01:16:42 AM 42.9142 -73.7328 12° North 244 281 11,000  Level Boston Center
Mon 01:18:06 AM 42.9142 -73.7328 154° Southeast 244 281 11,000  Level Boston Center

Login

Don't have an account? Register now (free) for customized features, flight alerts, and more!